Terminal Aerodrome Forecast
Issued by NWS

Home | Current Version | Previous Version | Text Only | Print | Product List | Glossary On
Versions: 1 2 3 4 5 6 7 8 9 10 11 12 13 14 15 16
000
FTUS43 KPAH 291100
TAFCGI
TAF
KCGI 291120Z 2912/3012 00000KT 3SM BR MIFG SKC
      TEMPO 2912/2913 1SM BR SCT003
     FM291400 00000KT P6SM SKC
     FM291630 02005KT P6SM FEW050
     FM292200 00000KT P6SM SKC=

USA.gov is the U.S. government's official web portal to all federal, state and local government web resources and services.